EDW264 LSZH-LPMA
Flight info
| Callsign | EDW264 |
|---|---|
| Flight time | N/A |
| Altitude | 33000 |
| Route | VEBIT T50 ROTOS Z669 ULMES DCT VADAR DCT NINTU/N0445F350 DCT MEBAK DCT REPSI DCT LERGA DCT MINSO DCT NARAK DCT AGN DCT PIPOR DCT PPN DCT MIRPO DCT DGO DCT NEA DCT ARDID/N0451F370 DCT FTM DCT NASAS DCT LIDRO |
| Aircraft | A320/M-SDE3FGHIRWY/LB1 |
Departure
| Time | N/A |
|---|---|
| Airport | Zürich Airport (LSZH) |
Arrival
| Time | 2026-05-04 20:42 |
|---|---|
| Airport | Cristiano Ronaldo International Airport (LPMA) |
| Time | Latitude | Longitude | Altitude | Speed | Heading |
|---|---|---|---|---|---|
| 2026-05-04 19:16 | 39.06944 | -9.34073 | 37140 ft | 399 kts | 233° |
| 2026-05-04 19:16 | 39.03158 | -9.39375 | 37143 ft | 399 kts | 233° |
| 2026-05-04 19:17 | 39.00052 | -9.43735 | 37142 ft | 399 kts | 233° |
| 2026-05-04 19:17 | 38.95651 | -9.49891 | 37098 ft | 399 kts | 233° |
| 2026-05-04 19:18 | 38.91914 | -9.55095 | 37115 ft | 399 kts | 233° |
| 2026-05-04 19:18 | 38.88149 | -9.60341 | 37125 ft | 399 kts | 233° |
| 2026-05-04 19:19 | 38.84386 | -9.65579 | 37132 ft | 399 kts | 233° |
| 2026-05-04 19:19 | 38.80613 | -9.70810 | 37140 ft | 399 kts | 233° |
| 2026-05-04 19:20 | 38.76841 | -9.76036 | 37150 ft | 399 kts | 233° |
| 2026-05-04 19:20 | 38.73092 | -9.81236 | 37147 ft | 399 kts | 233° |
| 2026-05-04 19:21 | 38.69308 | -9.86460 | 37107 ft | 400 kts | 232° |
| 2026-05-04 19:21 | 38.65524 | -9.91669 | 37122 ft | 400 kts | 232° |
| 2026-05-04 19:22 | 38.61724 | -9.96896 | 37125 ft | 400 kts | 232° |
| 2026-05-04 19:22 | 38.57927 | -10.02114 | 37135 ft | 401 kts | 232° |
| 2026-05-04 19:23 | 38.54129 | -10.07329 | 37141 ft | 401 kts | 232° |
| 2026-05-04 19:23 | 38.50323 | -10.12534 | 37147 ft | 401 kts | 232° |
| 2026-05-04 19:24 | 38.46519 | -10.17740 | 37151 ft | 401 kts | 232° |
| 2026-05-04 19:24 | 38.42759 | -10.22878 | 37111 ft | 401 kts | 232° |
| 2026-05-04 19:25 | 38.38934 | -10.28083 | 37130 ft | 402 kts | 232° |
| 2026-05-04 19:25 | 38.35113 | -10.33280 | 37139 ft | 402 kts | 232° |
| 2026-05-04 19:26 | 38.31282 | -10.38481 | 37143 ft | 402 kts | 232° |
| 2026-05-04 19:26 | 38.27450 | -10.43674 | 37152 ft | 402 kts | 231° |
| 2026-05-04 19:27 | 38.23633 | -10.48853 | 37161 ft | 402 kts | 232° |
| 2026-05-04 19:27 | 38.19792 | -10.54062 | 37163 ft | 402 kts | 231° |
| 2026-05-04 19:28 | 38.15950 | -10.59245 | 37126 ft | 402 kts | 231° |
| 2026-05-04 19:28 | 38.12105 | -10.64420 | 37142 ft | 403 kts | 231° |
| 2026-05-04 19:29 | 38.08293 | -10.69544 | 37157 ft | 402 kts | 231° |
| 2026-05-04 19:29 | 38.04443 | -10.74709 | 37161 ft | 402 kts | 231° |
| 2026-05-04 19:30 | 38.00599 | -10.79855 | 37162 ft | 402 kts | 231° |
| 2026-05-04 19:30 | 37.96746 | -10.85022 | 37165 ft | 402 kts | 231° |
| 2026-05-04 19:31 | 37.92900 | -10.90165 | 37171 ft | 402 kts | 231° |
| 2026-05-04 19:31 | 37.89047 | -10.95295 | 37172 ft | 402 kts | 231° |
| 2026-05-04 19:32 | 37.85183 | -11.00444 | 37173 ft | 403 kts | 231° |
| 2026-05-04 19:32 | 37.81324 | -11.05590 | 37173 ft | 403 kts | 231° |
| 2026-05-04 19:33 | 37.77458 | -11.10722 | 37173 ft | 403 kts | 231° |
| 2026-05-04 19:33 | 37.73612 | -11.15824 | 37176 ft | 403 kts | 231° |
| 2026-05-04 19:34 | 37.69736 | -11.20949 | 37183 ft | 403 kts | 231° |
| 2026-05-04 19:34 | 37.65856 | -11.26073 | 37178 ft | 403 kts | 231° |
| 2026-05-04 19:35 | 37.61981 | -11.31183 | 37176 ft | 402 kts | 231° |
| 2026-05-04 19:35 | 37.58114 | -11.36269 | 37181 ft | 401 kts | 231° |
| 2026-05-04 19:36 | 37.54254 | -11.41344 | 37190 ft | 401 kts | 231° |
| 2026-05-04 19:36 | 37.50398 | -11.46406 | 37191 ft | 400 kts | 231° |
| 2026-05-04 19:37 | 37.46543 | -11.51461 | 37187 ft | 400 kts | 231° |
| 2026-05-04 19:37 | 37.42683 | -11.56509 | 37187 ft | 400 kts | 231° |
| 2026-05-04 19:38 | 37.38828 | -11.61542 | 37190 ft | 400 kts | 231° |
| 2026-05-04 19:38 | 37.35003 | -11.66538 | 37174 ft | 399 kts | 231° |
| 2026-05-04 19:39 | 37.31149 | -11.71557 | 37183 ft | 399 kts | 231° |
| 2026-05-04 19:39 | 37.27288 | -11.76559 | 37189 ft | 398 kts | 231° |
| 2026-05-04 19:40 | 37.23438 | -11.81560 | 37190 ft | 398 kts | 231° |
| 2026-05-04 19:40 | 37.19589 | -11.86561 | 37191 ft | 398 kts | 231° |
| 2026-05-04 19:41 | 37.15740 | -11.91556 | 37193 ft | 398 kts | 231° |
| 2026-05-04 19:41 | 37.11885 | -11.96538 | 37193 ft | 398 kts | 231° |
| 2026-05-04 19:42 | 37.08023 | -12.01511 | 37156 ft | 398 kts | 230° |
| 2026-05-04 19:42 | 37.04163 | -12.06487 | 37182 ft | 398 kts | 230° |
| 2026-05-04 19:43 | 37.00296 | -12.11458 | 37185 ft | 398 kts | 230° |
| 2026-05-04 19:43 | 36.96428 | -12.16422 | 37189 ft | 399 kts | 230° |
| 2026-05-04 19:44 | 36.92551 | -12.21388 | 37184 ft | 399 kts | 230° |
| 2026-05-04 19:44 | 36.88697 | -12.26320 | 37187 ft | 399 kts | 230° |
| 2026-05-04 19:45 | 36.84821 | -12.31285 | 37190 ft | 399 kts | 230° |
| 2026-05-04 19:45 | 36.80945 | -12.36238 | 37175 ft | 399 kts | 230° |
| 2026-05-04 19:46 | 36.77061 | -12.41171 | 37182 ft | 399 kts | 230° |
| 2026-05-04 19:46 | 36.73170 | -12.46120 | 37186 ft | 399 kts | 230° |
| 2026-05-04 19:47 | 36.69276 | -12.51065 | 37191 ft | 399 kts | 230° |
| 2026-05-04 19:47 | 36.65385 | -12.55998 | 37191 ft | 399 kts | 230° |
| 2026-05-04 19:48 | 36.61515 | -12.60893 | 37194 ft | 399 kts | 230° |
| 2026-05-04 19:48 | 36.57614 | -12.65820 | 37200 ft | 399 kts | 230° |
| 2026-05-04 19:49 | 36.53720 | -12.70737 | 37171 ft | 399 kts | 230° |
| 2026-05-04 19:49 | 36.49820 | -12.75664 | 37185 ft | 399 kts | 230° |
| 2026-05-04 19:50 | 36.45914 | -12.80584 | 37192 ft | 400 kts | 230° |
| 2026-05-04 19:50 | 36.42663 | -12.84662 | 37196 ft | 400 kts | 230° |
| 2026-05-04 19:51 | 36.38753 | -12.89579 | 37200 ft | 400 kts | 230° |
| 2026-05-04 19:51 | 36.34842 | -12.94479 | 37204 ft | 400 kts | 230° |
| 2026-05-04 19:52 | 36.30901 | -12.99366 | 37204 ft | 401 kts | 228° |
| 2026-05-04 19:52 | 36.26848 | -13.04117 | 37183 ft | 401 kts | 227° |
| 2026-05-04 19:53 | 36.22773 | -13.08815 | 37204 ft | 400 kts | 227° |
| 2026-05-04 19:53 | 36.18703 | -13.13542 | 37203 ft | 400 kts | 227° |
| 2026-05-04 19:54 | 36.14658 | -13.18275 | 37206 ft | 399 kts | 227° |
| 2026-05-04 19:54 | 36.10636 | -13.22962 | 37209 ft | 399 kts | 227° |
| 2026-05-04 19:55 | 36.06582 | -13.27664 | 37210 ft | 399 kts | 227° |
| 2026-05-04 19:55 | 36.02538 | -13.32368 | 37210 ft | 399 kts | 227° |
| 2026-05-04 19:56 | 35.98495 | -13.37066 | 37196 ft | 399 kts | 227° |
| 2026-05-04 19:56 | 35.94450 | -13.41750 | 37210 ft | 398 kts | 227° |
| 2026-05-04 19:57 | 35.90427 | -13.46392 | 37210 ft | 398 kts | 227° |
| 2026-05-04 19:57 | 35.86385 | -13.51049 | 37202 ft | 398 kts | 226° |
| 2026-05-04 19:58 | 35.82337 | -13.55711 | 37210 ft | 398 kts | 226° |
| 2026-05-04 19:58 | 35.78297 | -13.60370 | 37210 ft | 398 kts | 226° |
| 2026-05-04 19:59 | 35.74256 | -13.65031 | 37211 ft | 398 kts | 226° |
| 2026-05-04 19:59 | 35.70207 | -13.69682 | 37192 ft | 398 kts | 226° |
| 2026-05-04 20:00 | 35.66151 | -13.74330 | 37201 ft | 399 kts | 226° |
| 2026-05-04 20:00 | 35.62080 | -13.78980 | 37203 ft | 399 kts | 226° |
| 2026-05-04 20:01 | 35.58008 | -13.83635 | 37207 ft | 399 kts | 226° |
| 2026-05-04 20:01 | 35.53940 | -13.88289 | 37200 ft | 400 kts | 226° |
| 2026-05-04 20:02 | 35.49878 | -13.92912 | 37198 ft | 401 kts | 226° |
| 2026-05-04 20:02 | 35.45789 | -13.97565 | 37199 ft | 401 kts | 226° |
| 2026-05-04 20:03 | 35.41684 | -14.02219 | 37185 ft | 402 kts | 226° |
| 2026-05-04 20:03 | 35.37578 | -14.06870 | 37185 ft | 402 kts | 226° |
| 2026-05-04 20:04 | 35.33463 | -14.11536 | 37191 ft | 403 kts | 226° |
| 2026-05-04 20:04 | 35.29348 | -14.16190 | 37196 ft | 403 kts | 226° |
| 2026-05-04 20:05 | 35.25262 | -14.20799 | 37200 ft | 403 kts | 226° |
| 2026-05-04 20:05 | 35.21102 | -14.25495 | 37200 ft | 403 kts | 226° |
| 2026-05-04 20:06 | 35.17004 | -14.30112 | 37202 ft | 403 kts | 226° |
| 2026-05-04 20:06 | 35.12876 | -14.34759 | 37203 ft | 403 kts | 226° |
| 2026-05-04 20:07 | 35.08751 | -14.39406 | 37205 ft | 403 kts | 226° |
| 2026-05-04 20:07 | 35.04618 | -14.44050 | 37204 ft | 403 kts | 225° |
| 2026-05-04 20:08 | 35.00477 | -14.48680 | 37204 ft | 403 kts | 225° |
| 2026-05-04 20:08 | 34.96341 | -14.53300 | 37205 ft | 403 kts | 225° |
| 2026-05-04 20:09 | 34.92199 | -14.57925 | 37207 ft | 403 kts | 225° |
| 2026-05-04 20:09 | 34.88085 | -14.62514 | 37206 ft | 403 kts | 225° |
| 2026-05-04 20:10 | 34.83919 | -14.67153 | 37190 ft | 403 kts | 225° |
| 2026-05-04 20:10 | 34.79802 | -14.71728 | 37194 ft | 404 kts | 225° |
| 2026-05-04 20:11 | 34.75661 | -14.76330 | 37201 ft | 404 kts | 225° |
| 2026-05-04 20:11 | 34.71503 | -14.80937 | 37199 ft | 404 kts | 225° |
| 2026-05-04 20:12 | 34.67346 | -14.85541 | 37191 ft | 404 kts | 225° |
| 2026-05-04 20:12 | 34.63189 | -14.90131 | 37198 ft | 404 kts | 225° |
| 2026-05-04 20:13 | 34.59044 | -14.94713 | 37195 ft | 404 kts | 225° |
| 2026-05-04 20:13 | 34.54884 | -14.99302 | 37166 ft | 404 kts | 225° |
| 2026-05-04 20:14 | 34.50735 | -15.03868 | 37168 ft | 405 kts | 225° |
| 2026-05-04 20:14 | 34.46548 | -15.08460 | 37182 ft | 406 kts | 225° |
| 2026-05-04 20:15 | 34.42415 | -15.13001 | 37140 ft | 395 kts | 225° |
| 2026-05-04 20:15 | 34.38344 | -15.17484 | 37139 ft | 397 kts | 225° |
| 2026-05-04 20:16 | 34.34223 | -15.22000 | 37145 ft | 401 kts | 225° |
| 2026-05-04 20:16 | 34.30120 | -15.26477 | 37149 ft | 403 kts | 225° |
| 2026-05-04 20:17 | 34.25936 | -15.31040 | 37134 ft | 405 kts | 225° |
| 2026-05-04 20:17 | 34.21783 | -15.35580 | 37155 ft | 406 kts | 225° |
| 2026-05-04 20:18 | 34.17579 | -15.40161 | 37160 ft | 406 kts | 225° |
| 2026-05-04 20:18 | 34.13372 | -15.44722 | 37157 ft | 407 kts | 225° |
| 2026-05-04 20:19 | 34.09158 | -15.49284 | 37165 ft | 407 kts | 225° |
| 2026-05-04 20:19 | 34.04942 | -15.53844 | 37173 ft | 407 kts | 225° |
| 2026-05-04 20:20 | 34.00731 | -15.58402 | 37176 ft | 407 kts | 225° |
| 2026-05-04 20:20 | 33.98626 | -15.60677 | 36964 ft | 407 kts | 225° |
| 2026-05-04 20:20 | 33.96514 | -15.62961 | 35982 ft | 414 kts | 225° |
| 2026-05-04 20:20 | 33.94358 | -15.65291 | 35249 ft | 413 kts | 224° |
| 2026-05-04 20:21 | 33.92217 | -15.67604 | 34446 ft | 416 kts | 224° |
| 2026-05-04 20:21 | 33.90057 | -15.69938 | 33574 ft | 419 kts | 224° |
| 2026-05-04 20:21 | 33.85709 | -15.74623 | 32076 ft | 417 kts | 224° |
| 2026-05-04 20:22 | 33.83595 | -15.76894 | 31532 ft | 412 kts | 224° |
| 2026-05-04 20:22 | 33.81435 | -15.79213 | 30954 ft | 409 kts | 224° |
| 2026-05-04 20:22 | 33.79320 | -15.81485 | 30387 ft | 406 kts | 224° |
| 2026-05-04 20:22 | 33.77222 | -15.83741 | 29775 ft | 403 kts | 224° |
| 2026-05-04 20:23 | 33.75174 | -15.85942 | 29240 ft | 398 kts | 224° |
| 2026-05-04 20:23 | 33.73121 | -15.88149 | 28699 ft | 394 kts | 224° |
| 2026-05-04 20:23 | 33.71089 | -15.90329 | 28171 ft | 389 kts | 224° |
| 2026-05-04 20:23 | 33.69081 | -15.92483 | 27626 ft | 386 kts | 224° |
| 2026-05-04 20:24 | 33.67069 | -15.94605 | 27067 ft | 384 kts | 220° |
| 2026-05-04 20:24 | 33.64875 | -15.96422 | 26505 ft | 383 kts | 215° |
| 2026-05-04 20:24 | 33.62628 | -15.98141 | 25949 ft | 382 kts | 215° |
| 2026-05-04 20:24 | 33.60391 | -15.99851 | 25401 ft | 380 kts | 215° |
| 2026-05-04 20:25 | 33.58174 | -16.01551 | 24884 ft | 378 kts | 215° |
| 2026-05-04 20:25 | 33.55964 | -16.03247 | 24358 ft | 376 kts | 215° |
| 2026-05-04 20:25 | 33.53770 | -16.04930 | 23853 ft | 374 kts | 215° |
| 2026-05-04 20:25 | 33.51581 | -16.06609 | 23312 ft | 372 kts | 215° |
| 2026-05-04 20:26 | 33.49438 | -16.08248 | 22840 ft | 368 kts | 215° |
| 2026-05-04 20:26 | 33.47290 | -16.09888 | 22366 ft | 364 kts | 214° |
| 2026-05-04 20:26 | 33.45161 | -16.11510 | 21895 ft | 361 kts | 214° |
| 2026-05-04 20:26 | 33.43052 | -16.13116 | 21441 ft | 358 kts | 214° |
| 2026-05-04 20:27 | 33.40960 | -16.14715 | 20959 ft | 355 kts | 214° |
| 2026-05-04 20:27 | 33.38883 | -16.16301 | 20491 ft | 353 kts | 214° |
| 2026-05-04 20:27 | 33.36819 | -16.17874 | 20001 ft | 351 kts | 214° |
| 2026-05-04 20:27 | 33.34761 | -16.19442 | 19514 ft | 350 kts | 214° |
| 2026-05-04 20:28 | 33.32707 | -16.21006 | 19022 ft | 350 kts | 214° |
| 2026-05-04 20:28 | 33.30651 | -16.22572 | 18528 ft | 349 kts | 214° |
| 2026-05-04 20:28 | 33.28603 | -16.24131 | 17985 ft | 349 kts | 213° |
| 2026-05-04 20:28 | 33.26554 | -16.25687 | 17486 ft | 347 kts | 213° |
| 2026-05-04 20:29 | 33.24523 | -16.27230 | 17000 ft | 346 kts | 213° |
| 2026-05-04 20:29 | 33.22494 | -16.28771 | 16521 ft | 344 kts | 213° |
| 2026-05-04 20:29 | 33.20474 | -16.30302 | 16040 ft | 343 kts | 213° |
| 2026-05-04 20:29 | 33.18463 | -16.31828 | 15566 ft | 342 kts | 213° |
| 2026-05-04 20:30 | 33.16456 | -16.33353 | 15083 ft | 342 kts | 213° |
| 2026-05-04 20:30 | 33.14478 | -16.34855 | 14630 ft | 341 kts | 213° |
| 2026-05-04 20:30 | 33.12476 | -16.36375 | 14149 ft | 341 kts | 212° |
| 2026-05-04 20:30 | 33.10483 | -16.37882 | 13642 ft | 341 kts | 212° |
| 2026-05-04 20:31 | 33.08475 | -16.39400 | 13139 ft | 339 kts | 212° |
| 2026-05-04 20:31 | 33.06485 | -16.40903 | 12647 ft | 337 kts | 212° |
| 2026-05-04 20:31 | 33.04507 | -16.42395 | 12161 ft | 335 kts | 212° |
| 2026-05-04 20:31 | 33.02543 | -16.43874 | 11671 ft | 333 kts | 212° |
| 2026-05-04 20:32 | 33.00585 | -16.45349 | 11177 ft | 332 kts | 212° |
| 2026-05-04 20:32 | 32.98638 | -16.46817 | 10684 ft | 330 kts | 212° |
| 2026-05-04 20:32 | 32.96716 | -16.48266 | 10434 ft | 321 kts | 212° |
| 2026-05-04 20:32 | 32.94874 | -16.49653 | 10311 ft | 308 kts | 212° |
| 2026-05-04 20:33 | 32.93099 | -16.51004 | 10184 ft | 296 kts | 216° |
| 2026-05-04 20:33 | 32.91548 | -16.52562 | 9999 ft | 288 kts | 222° |
| 2026-05-04 20:33 | 32.90056 | -16.54164 | 9444 ft | 293 kts | 222° |
| 2026-05-04 20:33 | 32.88569 | -16.55755 | 9184 ft | 286 kts | 222° |
| 2026-05-04 20:34 | 32.87098 | -16.57322 | 9051 ft | 275 kts | 222° |
| 2026-05-04 20:34 | 32.85706 | -16.58806 | 8757 ft | 263 kts | 222° |
| 2026-05-04 20:34 | 32.84372 | -16.60230 | 8194 ft | 260 kts | 222° |
| 2026-05-04 20:34 | 32.83019 | -16.61679 | 7624 ft | 256 kts | 222° |
| 2026-05-04 20:35 | 32.81632 | -16.62915 | 7123 ft | 251 kts | 211° |
| 2026-05-04 20:35 | 32.80058 | -16.63775 | 6669 ft | 249 kts | 199° |
| 2026-05-04 20:35 | 32.78412 | -16.64430 | 6213 ft | 252 kts | 200° |
| 2026-05-04 20:35 | 32.76751 | -16.65099 | 5794 ft | 251 kts | 199° |
| 2026-05-04 20:36 | 32.75094 | -16.65771 | 5355 ft | 252 kts | 200° |
| 2026-05-04 20:36 | 32.73454 | -16.66440 | 4977 ft | 250 kts | 200° |
| 2026-05-04 20:36 | 32.71799 | -16.67117 | 4595 ft | 248 kts | 200° |
| 2026-05-04 20:36 | 32.70177 | -16.67777 | 4140 ft | 243 kts | 200° |
| 2026-05-04 20:37 | 32.68625 | -16.68408 | 3918 ft | 230 kts | 200° |
| 2026-05-04 20:37 | 32.67146 | -16.69008 | 3787 ft | 220 kts | 200° |
| 2026-05-04 20:37 | 32.65734 | -16.69579 | 3685 ft | 209 kts | 200° |
| 2026-05-04 20:37 | 32.64394 | -16.70119 | 3594 ft | 200 kts | 199° |
| 2026-05-04 20:38 | 32.63123 | -16.70793 | 3263 ft | 205 kts | 214° |
| 2026-05-04 20:38 | 32.62360 | -16.71501 | 2922 ft | 207 kts | 225° |
| 2026-05-04 20:38 | 32.61503 | -16.72803 | 2452 ft | 202 kts | 241° |
| 2026-05-04 20:38 | 32.60998 | -16.74305 | 2234 ft | 190 kts | 256° |
| 2026-05-04 20:39 | 32.60841 | -16.75810 | 2118 ft | 178 kts | 270° |
| 2026-05-04 20:39 | 32.60986 | -16.77211 | 2028 ft | 165 kts | 283° |
| 2026-05-04 20:39 | 32.61391 | -16.78429 | 1875 ft | 156 kts | 301° |
| 2026-05-04 20:39 | 32.62073 | -16.79385 | 1664 ft | 149 kts | 319° |
| 2026-05-04 20:40 | 32.62928 | -16.80020 | 1491 ft | 144 kts | 336° |
| 2026-05-04 20:40 | 32.63884 | -16.80324 | 1292 ft | 143 kts | 353° |
| 2026-05-04 20:40 | 32.64875 | -16.80342 | 1101 ft | 143 kts | 360° |
| 2026-05-04 20:40 | 32.65874 | -16.80340 | 905 ft | 143 kts | 0° |
| 2026-05-04 20:41 | 32.66861 | -16.80204 | 700 ft | 145 kts | 17° |
| 2026-05-04 20:41 | 32.67776 | -16.79699 | 508 ft | 145 kts | 35° |
| 2026-05-04 20:41 | 32.68526 | -16.78914 | 347 ft | 144 kts | 45° |
| 2026-05-04 20:41 | 32.69243 | -16.78091 | 199 ft | 136 kts | 45° |
| 2026-05-04 20:42 | 32.69803 | -16.77430 | 175 ft | 77 kts | 44° |
| 2026-05-04 20:42 | 32.70054 | -16.77139 | 175 ft | 42 kts | 43° |
| 2026-05-04 20:42 | 32.70284 | -16.76872 | 175 ft | 48 kts | 44° |
| 2026-05-04 20:42 | 32.70410 | -16.76761 | 175 ft | 7 kts | 339° |
| 2026-05-04 20:43 | 32.70403 | -16.76791 | 175 ft | 3 kts | 202° |
| 2026-05-04 20:43 | 32.70366 | -16.76803 | 175 ft | 12 kts | 197° |
| 2026-05-04 20:43 | 32.70289 | -16.76868 | 175 ft | 15 kts | 222° |
| 2026-05-04 20:43 | 32.70196 | -16.76971 | 175 ft | 21 kts | 223° |
| 2026-05-04 20:44 | 32.70090 | -16.77093 | 175 ft | 17 kts | 225° |
| 2026-05-04 20:44 | 32.70046 | -16.77145 | 175 ft | 7 kts | 220° |
| 2026-05-04 20:44 | 32.70002 | -16.77165 | 175 ft | 6 kts | 189° |
| 2026-05-04 20:44 | 32.69963 | -16.77168 | 175 ft | 5 kts | 179° |
| 2026-05-04 20:45 | 32.69937 | -16.77167 | 175 ft | 3 kts | 177° |
| 2026-05-04 20:45 | 32.69922 | -16.77166 | 175 ft | 2 kts | 177° |
| 2026-05-04 20:45 | 32.69874 | -16.77165 | 175 ft | 11 kts | 184° |
| 2026-05-04 20:45 | 32.69805 | -16.77219 | 175 ft | 13 kts | 225° |
| 2026-05-04 20:46 | 32.69801 | -16.77223 | 175 ft | 0 kts | 225° |
| 2026-05-04 20:46 | 32.69791 | -16.77235 | 175 ft | 6 kts | 225° |
| 2026-05-04 20:46 | 32.69738 | -16.77299 | 175 ft | 15 kts | 226° |
| 2026-05-04 20:46 | 32.69644 | -16.77414 | 175 ft | 24 kts | 225° |
| 2026-05-04 20:47 | 32.69578 | -16.77498 | 175 ft | 11 kts | 227° |
| 2026-05-04 20:47 | 32.69559 | -16.77523 | 175 ft | 2 kts | 227° |
| 2026-05-04 20:47 | 32.69550 | -16.77533 | 175 ft | 1 kts | 227° |
| 2026-05-04 20:47 | 32.69546 | -16.77539 | 175 ft | 1 kts | 227° |
| 2026-05-04 20:48 | 32.69519 | -16.77573 | 175 ft | 9 kts | 226° |
| 2026-05-04 20:48 | 32.69499 | -16.77597 | 175 ft | 0 kts | 226° |
| 2026-05-04 20:48 | 32.69494 | -16.77604 | 175 ft | 5 kts | 226° |
| 2026-05-04 20:48 | 32.69480 | -16.77621 | 175 ft | 2 kts | 226° |
| 2026-05-04 20:49 | 32.69469 | -16.77632 | 175 ft | 3 kts | 212° |
| 2026-05-04 20:49 | 32.69451 | -16.77631 | 175 ft | 1 kts | 150° |
| 2026-05-04 20:49 | 32.69439 | -16.77615 | 175 ft | 7 kts | 134° |
| 2026-05-04 20:49 | 32.69420 | -16.77593 | 175 ft | 0 kts | 135° |
| 2026-05-04 20:50 | 32.69417 | -16.77589 | 175 ft | 0 kts | 135° |